Puunene, HI (96784)

12:29 PM HST on December 04, 2016 (GMT -1000)
Waikapu Gardens | | Change Station
Active Advisory: Flash Flood Watch

Elev 390 ft 20.86 °N, 156.50 °W | Updated 4 seconds ago

Light Rain
Light Rain
76.6 °F
Feels Like 78 °F
N
0.0
Wind Variable Wind from SSE
Gusts 1.0 mph

Today
High -- | Low -- °F
--% Chance of Precip.
Yesterday
High -- | Low -- °F
Precip. -- in
Pressure 29.96 in
Visibility 9.0 miles
Clouds Scattered Clouds 2000 ft
Mostly Cloudy 4000 ft
Overcast 10000 ft
Heat Index 78 °F
Dew Point 71 °F
Humidity 83%
Rainfall 0.02 in
Snow Depth Not available.
6:48 AM 5:44 PM
Waxing Crescent, 26% visible
METAR PHOG 042154Z 31004KT 9SM -RA SCT020 BKN040 OVC100 25/22 A2995 RMK AO2 RAB07 SLP146 P0000 T02500217
Pressure 29.96 in
Visibility 9.0 miles
Clouds Scattered Clouds 2000 ft
Mostly Cloudy 4000 ft
Overcast 10000 ft
Heat Index 78 °F
Dew Point 71 °F
Humidity 83%
Rainfall 0.02 in
Snow Depth Not available.
6:48 AM 5:44 PM
Waxing Crescent, 26% visible
METAR PHOG 042154Z 31004KT 9SM -RA SCT020 BKN040 OVC100 25/22 A2995 RMK AO2 RAB07 SLP146 P0000 T02500217

10-Day Weather Forecast

Almanac

Astronomy

Dec. 04, 2016 Rise Set
Actual Time
Civil Twilight
Nautical Twilight
Astronomical Twilight
Moon
Length of Visible Light
Length of Day
Tomorrow will be .
, % of the Moon is Illuminated

Today's Extremes

State Highs State Lows

Community

WunderPhotos

Upload Photos

1,955,678 photos uploaded!

WunderBlog® & News

Nearby

Air Quality

  Air Quality AQ Index Pollutant
Not available.

Snow Depth

Station Depth Elevation

Earthquake Activity

City Distance Mag. Time & Date
Minimum magnitude displayed is 2.5.

Coastal Water Temperatures

Place Temperature

Stations

Nearby Weather Stations

Station Location Temp. Windchill Dew Point Humidity Wind Precip. Elev Updated Type
                   

Watches & Warnings

Flash Flood Watch
Issued: 3:20 AM HST Dec. 4, 2016 – National Weather Service

... Flash Flood Watch remains in effect through this afternoon...

The Flash Flood Watch continues for

* all Hawaiian islands.

* Through this afternoon.

* The combination of deep tropical moisture and an unstable
airmass will allow for the potential for heavy showers and
thunderstorms across the state.

* Heavier downpours and thunderstorms could cause streams to
quickly overflow their banks... leading to flash flooding.

Precautionary/preparedness actions...

A Flash Flood Watch means that conditions may develop that lead
to flash flooding. Flash flooding is very dangerous.

You should monitor later forecasts and be prepared to take action
should flash flood warnings be issued. Campers and hikers should
consider postponing their Outing until the weather is better.
High streams... as well as streams overflowing their banks... could
make conditions very dangerous.



Jacobson